createdAt,value
2023-03-01T00:00:08.868Z,74.15
2023-03-01T00:02:20.699Z,74.29
2023-03-01T00:04:12.438Z,74.17
2023-03-01T00:06:04.860Z,74.40
2023-03-01T00:07:56.727Z,74.12
2023-03-01T00:09:48.358Z,74.01
2023-03-01T00:11:40.117Z,74.21
2023-03-01T00:13:31.837Z,74.15
2023-03-01T00:15:23.486Z,74.34
2023-03-01T00:17:14.613Z,74.45
2023-03-01T00:19:07.894Z,74.31
2023-03-01T00:20:59.559Z,74.45
2023-03-01T00:22:50.813Z,74.46
2023-03-01T00:24:41.960Z,74.49
2023-03-01T00:26:33.601Z,74.28
2023-03-01T00:28:25.262Z,74.13
2023-03-01T00:30:16.865Z,74.16
2023-03-01T00:32:08.581Z,74.25
2023-03-01T00:34:02.763Z,74.43
2023-03-01T00:35:53.985Z,74.64
2023-03-01T00:37:45.717Z,74.65
2023-03-01T00:39:37.543Z,74.56
2023-03-01T00:41:29.489Z,74.57
2023-03-01T00:43:21.046Z,74.47
2023-03-01T00:45:14.604Z,74.58
2023-03-01T00:47:06.067Z,74.86
2023-03-01T00:48:57.398Z,74.86
2023-03-01T00:50:48.572Z,74.78
2023-03-01T00:52:40.406Z,74.55
2023-03-01T00:54:31.959Z,74.45
2023-03-01T00:56:24.169Z,74.45
2023-03-01T00:58:15.818Z,74.43
2023-03-01T01:00:10.677Z,74.58
2023-03-01T01:02:02.441Z,74.40
2023-03-01T01:03:59.615Z,74.49
2023-03-01T01:05:52.024Z,74.37
2023-03-01T01:07:43.246Z,74.44
2023-03-01T01:09:35.410Z,74.48
2023-03-01T01:11:29.909Z,74.62
2023-03-01T01:13:22.676Z,74.72
2023-03-01T01:15:17.556Z,74.67
2023-03-01T01:17:10.486Z,74.83
2023-03-01T01:19:02.567Z,74.63
2023-03-01T01:20:53.988Z,74.36
2023-03-01T01:22:45.540Z,74.24
2023-03-01T01:24:37.593Z,74.21
2023-03-01T01:26:32.264Z,74.17
2023-03-01T01:28:24.084Z,74.01
2023-03-01T01:30:15.381Z,73.96
2023-03-01T01:32:06.654Z,73.79
2023-03-01T01:33:58.384Z,74.13
2023-03-01T01:35:49.867Z,74.09
2023-03-01T01:37:40.926Z,74.33
2023-03-01T01:39:32.184Z,74.46
2023-03-01T01:41:25.278Z,74.51
2023-03-01T01:43:29.448Z,74.55
2023-03-01T01:45:46.172Z,74.50
2023-03-01T01:47:38.094Z,74.56
2023-03-01T01:49:33.696Z,74.29
2023-03-01T01:52:47.539Z,74.43
2023-03-01T01:54:52.596Z,74.35
2023-03-01T01:56:46.520Z,74.64
2023-03-01T01:58:38.658Z,74.57
2023-03-01T02:00:31.465Z,74.57
2023-03-01T02:02:23.081Z,75.00
2023-03-01T02:04:15.135Z,75.25
2023-03-01T02:06:22.375Z,75.46
2023-03-01T02:08:16.124Z,75.25
2023-03-01T02:10:08.040Z,74.89
2023-03-01T02:12:00.434Z,74.88
2023-03-01T02:13:52.565Z,74.78
2023-03-01T02:15:45.243Z,75.07
2023-03-01T02:17:37.247Z,75.00
2023-03-01T02:19:52.651Z,74.80
2023-03-01T02:22:00.246Z,74.77
2023-03-01T02:23:51.909Z,74.50
2023-03-01T02:25:59.898Z,74.57
2023-03-01T02:37:36.683Z,75.18
2023-03-01T02:39:49.401Z,75.12
2023-03-01T02:41:45.152Z,74.86
2023-03-01T02:43:37.460Z,74.81
2023-03-01T02:45:28.916Z,74.95
2023-03-01T02:47:20.590Z,74.98
2023-03-01T02:49:30.414Z,75.12
2023-03-01T02:51:34.698Z,75.44
2023-03-01T02:53:49.516Z,75.35
2023-03-01T02:55:41.545Z,75.20
2023-03-01T02:57:34.607Z,75.21
2023-03-01T02:59:32.021Z,75.37
2023-03-01T03:01:23.513Z,75.36
2023-03-01T03:03:17.465Z,75.37
2023-03-01T03:05:13.759Z,75.82
2023-03-01T03:07:05.190Z,75.67
2023-03-01T03:08:56.791Z,75.76
2023-03-01T03:10:48.613Z,75.76
2023-03-01T03:12:40.256Z,75.63
2023-03-01T03:14:35.968Z,75.68
2023-03-01T03:16:27.470Z,75.65
2023-03-01T03:18:19.941Z,75.67
2023-03-01T03:20:18.211Z,75.53
2023-03-01T03:22:10.222Z,75.60
2023-03-01T03:24:02.108Z,75.69
2023-03-01T03:25:53.480Z,75.71
2023-03-01T03:27:46.348Z,75.84
2023-03-01T03:29:38.271Z,75.87
2023-03-01T03:31:30.181Z,75.89
2023-03-01T03:33:21.758Z,75.77
2023-03-01T03:35:13.419Z,75.62
2023-03-01T03:37:25.185Z,75.63
2023-03-01T03:39:18.274Z,75.23
2023-03-01T03:41:11.121Z,75.28
2023-03-01T03:43:04.070Z,75.14
2023-03-01T03:44:55.890Z,74.98
2023-03-01T03:46:47.853Z,74.69
2023-03-01T03:48:42.434Z,74.47
2023-03-01T03:50:34.357Z,74.31
2023-03-01T03:52:26.150Z,74.31
2023-03-01T03:54:18.257Z,74.37
2023-03-01T03:56:10.218Z,74.40
2023-03-01T03:58:08.081Z,74.83
2023-03-01T04:00:00.089Z,74.57
2023-03-01T04:01:52.093Z,74.73
2023-03-01T04:03:47.666Z,74.75
2023-03-01T04:05:40.452Z,74.99
2023-03-01T04:07:32.146Z,74.95
2023-03-01T04:09:23.945Z,75.22
2023-03-01T04:11:27.895Z,75.17
2023-03-01T04:13:21.844Z,75.17
2023-03-01T04:15:14.211Z,75.28
2023-03-01T04:17:06.386Z,75.31
2023-03-01T04:19:00.793Z,75.24
2023-03-01T04:20:56.525Z,74.93
2023-03-01T06:01:52.463Z,75.16
2023-03-01T06:03:44.777Z,74.85
2023-03-01T06:05:36.662Z,74.93
2023-03-01T06:07:28.497Z,75.27
2023-03-01T06:09:20.275Z,75.27
2023-03-01T06:11:11.916Z,75.64
2023-03-01T06:13:03.650Z,75.63
2023-03-01T06:14:55.196Z,75.55
2023-03-01T06:16:46.897Z,75.32
2023-03-01T06:18:39.288Z,75.19
2023-03-01T06:20:31.124Z,75.29
2023-03-01T06:22:23.161Z,75.25
2023-03-01T06:24:14.958Z,75.16
2023-03-01T06:26:08.646Z,75.12
2023-03-01T06:28:00.408Z,74.88
2023-03-01T06:29:52.178Z,74.89
2023-03-01T06:31:43.531Z,74.74
2023-03-01T06:33:35.714Z,74.79
2023-03-01T06:35:31.114Z,75.11
2023-03-01T06:37:22.775Z,74.91
2023-03-01T06:39:14.409Z,74.72
2023-03-01T06:41:05.940Z,74.70
2023-03-01T06:42:58.376Z,74.52
2023-03-01T06:44:50.303Z,74.54
2023-03-01T06:46:42.785Z,74.60
2023-03-01T06:48:35.131Z,74.38
2023-03-01T06:50:27.130Z,74.43
2023-03-01T06:52:18.794Z,74.39
2023-03-01T06:54:10.850Z,74.32
2023-03-01T06:56:02.744Z,74.32
2023-03-01T06:57:58.179Z,74.15
2023-03-01T06:59:49.951Z,73.83
2023-03-01T07:01:41.879Z,73.63
2023-03-01T07:03:34.015Z,73.14
2023-03-01T07:05:25.625Z,72.88
2023-03-01T07:07:19.157Z,72.68
2023-03-01T07:09:10.976Z,72.45
2023-03-01T07:11:04.404Z,72.32
2023-03-01T07:12:58.011Z,72.08
2023-03-01T07:14:49.525Z,71.95
2023-03-01T07:16:41.033Z,71.24
2023-03-01T07:18:33.108Z,71.43
2023-03-01T07:20:26.765Z,71.38
2023-03-01T07:22:18.619Z,70.91
2023-03-01T07:24:16.519Z,70.44
2023-03-01T07:26:08.146Z,69.49
2023-03-01T07:27:59.811Z,68.37
2023-03-01T07:29:50.890Z,67.98
2023-03-01T07:31:42.673Z,67.96
2023-03-01T07:33:33.943Z,67.25
2023-03-01T07:35:27.162Z,66.31
2023-03-01T07:37:18.853Z,65.31
2023-03-01T07:39:11.612Z,64.66
2023-03-01T07:41:04.225Z,64.85
2023-03-01T07:42:57.596Z,64.91
2023-03-01T07:44:49.286Z,63.87
2023-03-01T07:46:40.525Z,64.01
2023-03-01T07:48:33.342Z,64.56
2023-03-01T07:50:24.713Z,64.34
2023-03-01T07:52:16.374Z,62.69
2023-03-01T07:54:08.150Z,62.64
2023-03-01T07:56:07.880Z,62.51
2023-03-01T07:57:59.575Z,61.36
2023-03-01T07:59:50.890Z,58.79
2023-03-01T08:01:42.617Z,60.36
2023-03-01T08:03:35.219Z,60.40
2023-03-01T08:05:26.895Z,57.97
2023-03-01T08:07:18.591Z,57.97
2023-03-01T08:09:10.480Z,57.29
2023-03-01T08:11:03.528Z,57.48
2023-03-01T08:12:54.997Z,56.08
2023-03-01T08:14:46.553Z,55.05
2023-03-01T08:16:37.908Z,53.86
2023-03-01T08:18:29.833Z,53.53
2023-03-01T08:20:21.955Z,51.49
2023-03-01T08:22:13.570Z,52.18
2023-03-01T08:24:07.030Z,52.20
2023-03-01T08:26:13.294Z,50.92
2023-03-01T08:28:05.132Z,52.72
2023-03-01T08:29:56.506Z,52.31
2023-03-01T08:31:48.927Z,52.14
2023-03-01T08:33:40.523Z,51.50
2023-03-01T08:35:32.330Z,50.46
2023-03-01T08:37:23.801Z,49.77
2023-03-01T08:39:17.748Z,49.83
2023-03-01T08:41:09.106Z,49.02
2023-03-01T08:43:00.781Z,49.00
2023-03-01T08:44:52.584Z,48.86
2023-03-01T08:46:45.008Z,48.25
2023-03-01T08:48:36.369Z,45.78
2023-03-01T08:50:28.094Z,46.21
2023-03-01T08:54:40.575Z,46.07
2023-03-01T08:56:30.701Z,45.87
2023-03-01T08:58:20.903Z,45.00
2023-03-01T09:00:11.662Z,43.80
2023-03-01T09:02:02.467Z,42.39
2023-03-01T09:03:53.212Z,41.44
2023-03-01T09:05:46.308Z,42.37
2023-03-01T09:07:36.589Z,41.43
2023-03-01T09:09:27.146Z,41.99
2023-03-01T09:11:20.247Z,41.85
2023-03-01T09:13:10.947Z,41.49
2023-03-01T09:15:01.231Z,41.36
2023-03-01T09:16:52.133Z,40.87
2023-03-01T09:18:42.441Z,41.23
2023-03-01T09:20:33.115Z,39.84
2023-03-01T09:22:23.570Z,39.26
2023-03-01T09:24:15.068Z,39.13
2023-03-01T09:36:15.977Z,37.95
2023-03-01T09:38:07.940Z,37.33
2023-03-01T09:39:59.512Z,37.47
2023-03-01T09:42:01.173Z,37.51
2023-03-01T09:43:57.933Z,37.69
2023-03-01T09:45:52.176Z,37.39
2023-03-01T09:47:44.176Z,36.86
2023-03-01T09:49:38.110Z,37.02
2023-03-01T09:51:35.480Z,36.96
2023-03-01T09:53:33.400Z,36.24
2023-03-01T09:55:33.050Z,34.16
2023-03-01T09:57:37.873Z,34.82
2023-03-01T10:00:10.493Z,35.83
2023-03-01T10:02:06.303Z,34.31
2023-03-01T10:04:10.472Z,33.43
2023-03-01T10:06:04.986Z,34.78
2023-03-01T10:08:03.898Z,34.34
2023-03-01T10:09:55.812Z,34.16
2023-03-01T10:11:51.130Z,33.53
2023-03-01T10:14:00.791Z,32.96
2023-03-01T10:15:57.217Z,34.08
2023-03-01T10:18:08.824Z,32.85
2023-03-01T10:20:22.635Z,33.19
2023-03-01T10:22:29.507Z,32.57
2023-03-01T10:24:22.796Z,33.70
2023-03-01T10:26:46.086Z,33.74
2023-03-01T10:28:46.811Z,32.98
2023-03-01T10:30:42.652Z,33.09
2023-03-01T10:32:34.944Z,32.59
2023-03-01T10:34:30.709Z,32.35
2023-03-01T10:36:23.721Z,30.52
2023-03-01T10:38:17.303Z,32.91
2023-03-01T10:40:10.851Z,32.67
2023-03-01T10:42:06.420Z,32.92
2023-03-01T10:44:01.319Z,32.81
2023-03-01T10:45:52.852Z,32.40
2023-03-01T10:47:48.239Z,31.77
2023-03-01T10:49:39.976Z,32.11
2023-03-01T10:51:32.262Z,31.96
2023-03-01T10:53:27.451Z,32.54
2023-03-01T10:55:40.734Z,31.54
2023-03-01T10:57:41.305Z,32.98
2023-03-01T10:59:39.474Z,33.00
2023-03-01T11:01:34.624Z,32.22
2023-03-01T11:03:26.795Z,32.27
2023-03-01T11:05:22.533Z,31.33
2023-03-01T11:07:14.011Z,31.55
2023-03-01T11:09:23.012Z,31.18
2023-03-01T11:11:23.832Z,31.57
2023-03-01T11:13:18.268Z,30.40
2023-03-01T11:15:22.221Z,31.20
2023-03-01T11:17:18.410Z,31.42
2023-03-01T11:19:10.206Z,31.00
2023-03-01T11:21:03.156Z,30.79
2023-03-01T11:22:56.929Z,30.82
2023-03-01T11:25:07.139Z,30.71
2023-03-01T11:27:04.253Z,31.61
2023-03-01T11:28:59.134Z,31.49
2023-03-01T11:31:08.997Z,30.54
2023-03-01T11:33:18.276Z,31.39
2023-03-01T11:35:36.758Z,31.61
2023-03-01T11:37:46.966Z,29.91
2023-03-01T11:39:42.644Z,31.24
2023-03-01T11:41:37.779Z,30.97
2023-03-01T11:43:42.363Z,31.27
2023-03-01T11:45:50.762Z,30.42
2023-03-01T11:48:04.372Z,30.75
2023-03-01T11:50:07.194Z,31.12
2023-03-01T11:52:18.488Z,30.81
2023-03-01T11:54:22.224Z,30.66
2023-03-01T11:56:35.047Z,30.18
2023-03-01T11:58:47.916Z,30.47
2023-03-01T12:00:51.954Z,29.94
2023-03-01T12:02:52.527Z,30.63
2023-03-01T12:04:53.234Z,30.03
2023-03-01T12:06:58.406Z,29.83
2023-03-01T12:09:17.880Z,29.76
2023-03-01T12:11:24.114Z,28.79
2023-03-01T12:13:21.883Z,29.89
2023-03-01T12:15:50.788Z,29.35
2023-03-01T12:18:29.504Z,29.07
2023-03-01T12:20:23.761Z,28.84
2023-03-01T12:22:22.926Z,28.68
2023-03-01T12:24:34.059Z,27.51
2023-03-01T12:26:36.069Z,28.32
2023-03-01T12:28:39.648Z,29.12
2023-03-01T12:30:40.141Z,30.22
2023-03-01T12:32:36.620Z,30.12
2023-03-01T12:34:54.229Z,30.44
2023-03-01T12:37:15.867Z,29.87
2023-03-01T12:39:22.893Z,28.58
2023-03-01T12:51:21.180Z,27.20
2023-03-01T12:53:26.967Z,27.78
2023-03-01T12:55:26.923Z,25.25
2023-03-01T12:57:43.277Z,26.65
2023-03-01T13:00:08.472Z,25.76
2023-03-01T13:02:06.199Z,24.83
2023-03-01T13:04:11.583Z,24.24
2023-03-01T13:06:13.293Z,25.26
2023-03-01T13:08:14.043Z,25.45
2023-03-01T13:10:24.817Z,25.66
2023-03-01T13:12:49.228Z,24.27
2023-03-01T13:14:45.753Z,23.98
2023-03-01T13:16:38.557Z,23.75
2023-03-01T13:18:30.493Z,24.38
2023-03-01T13:20:25.237Z,23.99
2023-03-01T13:22:33.482Z,23.73
2023-03-01T13:24:43.144Z,24.82
2023-03-01T13:26:34.184Z,25.12
2023-03-01T13:39:00.438Z,25.70
2023-03-01T13:40:51.820Z,26.18
2023-03-01T13:42:56.254Z,25.57
2023-03-01T13:44:54.960Z,25.85
2023-03-01T13:46:47.456Z,26.67
2023-03-01T13:48:39.839Z,27.45
2023-03-01T13:50:40.314Z,27.09
2023-03-01T13:52:36.083Z,26.06
2023-03-01T13:54:31.488Z,27.03
2023-03-01T13:56:29.400Z,26.47
2023-03-01T13:58:33.140Z,27.15
2023-03-01T14:00:33.726Z,26.76
2023-03-01T14:02:25.318Z,26.52
2023-03-01T14:04:26.927Z,26.10
2023-03-01T14:06:22.897Z,26.32
2023-03-01T14:08:26.192Z,27.18
2023-03-01T14:10:18.963Z,27.39
2023-03-01T14:12:48.208Z,28.56
2023-03-01T14:14:45.856Z,28.44
2023-03-01T14:16:55.790Z,28.46
2023-03-01T14:18:59.751Z,28.29
2023-03-01T14:20:53.826Z,28.97
2023-03-01T14:22:46.276Z,28.40
2023-03-01T14:24:41.743Z,27.61
2023-03-01T14:26:34.827Z,27.31
2023-03-01T14:28:30.147Z,27.55
2023-03-01T14:30:34.839Z,27.58
2023-03-01T14:32:29.238Z,27.89
2023-03-01T14:34:23.822Z,27.70
2023-03-01T14:36:15.405Z,28.73
2023-03-01T14:38:07.443Z,27.70
2023-03-01T14:40:01.222Z,28.40
2023-03-01T14:41:53.417Z,28.43
2023-03-01T14:43:46.524Z,28.62
2023-03-01T14:45:38.144Z,28.09
2023-03-01T14:47:31.522Z,28.89
2023-03-01T14:49:25.660Z,28.92
2023-03-01T14:51:17.388Z,29.60
2023-03-01T14:53:17.752Z,29.60
2023-03-01T14:55:27.478Z,29.86
2023-03-01T14:57:24.643Z,29.32
2023-03-01T14:59:16.512Z,29.67
2023-03-01T15:01:09.718Z,28.96
2023-03-01T15:03:10.903Z,29.58
2023-03-01T15:05:09.172Z,29.17
2023-03-01T15:07:06.388Z,29.66
2023-03-01T15:08:59.023Z,30.03
2023-03-01T15:10:59.663Z,29.27
2023-03-01T15:12:53.379Z,29.45
2023-03-01T15:14:52.178Z,30.17
2023-03-01T15:16:50.489Z,29.62
2023-03-01T15:18:51.453Z,30.25
2023-03-01T15:20:43.299Z,30.63
2023-03-01T15:22:36.141Z,31.19
2023-03-01T15:24:29.917Z,30.50
2023-03-01T15:26:34.254Z,30.79
2023-03-01T15:28:27.359Z,31.82
2023-03-01T15:30:22.979Z,31.23
2023-03-01T15:32:31.405Z,31.59
2023-03-01T15:34:29.190Z,32.09
2023-03-01T15:36:32.456Z,31.74
2023-03-01T15:38:50.599Z,31.69
2023-03-01T15:40:50.557Z,32.70
2023-03-01T15:42:42.205Z,33.72
2023-03-01T15:44:43.377Z,34.14
2023-03-01T15:46:38.782Z,34.43
2023-03-01T15:48:30.463Z,34.56
2023-03-01T15:50:57.976Z,34.57
2023-03-01T15:52:50.566Z,35.05
2023-03-01T15:54:42.078Z,35.54
2023-03-01T15:56:33.913Z,35.98
2023-03-01T15:58:26.021Z,35.83
2023-03-01T16:00:18.564Z,36.31
2023-03-01T16:02:13.560Z,36.55
2023-03-01T16:04:05.475Z,36.87
2023-03-01T16:05:57.161Z,36.75
2023-03-01T16:07:48.745Z,36.87
2023-03-01T16:09:40.122Z,36.91
2023-03-01T16:11:33.678Z,37.58
2023-03-01T16:13:28.358Z,37.69
2023-03-01T16:15:23.863Z,38.12
2023-03-01T16:17:16.543Z,38.08
2023-03-01T16:19:08.218Z,38.40
2023-03-01T16:21:00.586Z,38.75
2023-03-01T16:22:52.360Z,39.06
2023-03-01T16:24:44.032Z,39.35
2023-03-01T16:26:37.200Z,39.61
2023-03-01T16:28:30.227Z,40.02
2023-03-01T16:30:23.377Z,40.37
2023-03-01T16:32:15.345Z,40.73
2023-03-01T16:34:07.167Z,40.97
2023-03-01T16:36:01.230Z,41.16
2023-03-01T16:37:55.071Z,41.50
2023-03-01T16:39:46.949Z,41.83
2023-03-01T16:41:38.239Z,42.03
2023-03-01T16:43:31.570Z,42.25
2023-03-01T16:45:24.917Z,42.55
2023-03-01T16:47:16.726Z,42.88
2023-03-01T16:49:08.697Z,43.17
2023-03-01T16:51:01.432Z,43.52
2023-03-01T16:52:53.054Z,43.72
2023-03-01T16:54:44.718Z,44.06
2023-03-01T16:56:38.600Z,44.13
2023-03-01T16:58:30.489Z,44.54
2023-03-01T17:09:49.284Z,46.21
2023-03-01T17:11:39.376Z,46.40
2023-03-01T17:13:30.063Z,46.39
2023-03-01T17:15:20.468Z,46.65
2023-03-01T17:17:11.573Z,46.81
2023-03-01T17:19:02.656Z,47.39
2023-03-01T17:20:53.160Z,47.47
2023-03-01T17:22:43.504Z,47.68
2023-03-01T17:24:38.001Z,47.81
2023-03-01T17:26:30.457Z,48.10
2023-03-01T17:28:25.551Z,48.44
2023-03-01T17:30:16.115Z,48.93
2023-03-01T17:32:07.207Z,49.18
2023-03-01T17:33:59.859Z,49.49
2023-03-01T17:35:51.333Z,49.96
2023-03-01T17:37:45.823Z,49.98
2023-03-01T17:39:37.099Z,50.38
2023-03-01T17:41:28.089Z,50.60
2023-03-01T17:43:19.520Z,51.08
2023-03-01T17:45:10.110Z,51.16
2023-03-01T17:47:02.051Z,51.52
2023-03-01T17:48:52.444Z,51.79
2023-03-01T17:50:42.911Z,52.21
2023-03-01T17:52:33.712Z,52.39
2023-03-01T17:54:24.406Z,52.64
2023-03-01T17:56:15.549Z,52.98
2023-03-01T17:58:06.671Z,53.32
2023-03-01T17:59:57.032Z,53.53
2023-03-01T18:01:47.608Z,53.80
2023-03-01T18:03:37.965Z,54.20
2023-03-01T18:05:34.734Z,54.55
2023-03-01T18:07:26.714Z,54.67
2023-03-01T18:09:17.479Z,54.80
2023-03-01T18:11:09.257Z,55.25
2023-03-01T18:13:00.057Z,55.54
2023-03-01T18:14:53.053Z,55.85
2023-03-01T18:16:43.551Z,56.03
2023-03-01T18:18:34.065Z,56.29
2023-03-01T18:20:24.534Z,56.52
2023-03-01T18:22:15.485Z,56.85
2023-03-01T18:24:06.105Z,57.18
2023-03-01T18:26:10.308Z,57.47
2023-03-01T18:28:00.977Z,57.72
2023-03-01T18:29:51.796Z,58.09
2023-03-01T18:31:42.663Z,58.48
2023-03-01T18:33:32.827Z,58.50
2023-03-01T18:35:23.545Z,58.64
2023-03-01T18:37:14.111Z,58.80
2023-03-01T18:39:06.227Z,58.84
2023-03-01T18:40:57.016Z,58.82
2023-03-01T18:42:47.245Z,58.92
2023-03-01T18:44:38.057Z,59.49
2023-03-01T18:46:28.578Z,59.83
2023-03-01T18:48:19.195Z,60.14
2023-03-01T18:50:10.782Z,60.37
2023-03-01T18:52:01.334Z,60.54
2023-03-01T18:53:51.458Z,60.68
2023-03-01T18:55:41.938Z,60.63
2023-03-01T18:57:32.082Z,60.53
2023-03-01T18:59:22.552Z,60.53
2023-03-01T19:01:18.073Z,60.56
2023-03-01T19:03:10.703Z,60.72
2023-03-01T19:05:01.029Z,61.00
2023-03-01T19:06:51.084Z,61.17
2023-03-01T19:08:42.549Z,61.48
2023-03-01T19:10:32.445Z,61.95
2023-03-01T19:12:22.877Z,62.28
2023-03-01T19:14:12.936Z,62.68
2023-03-01T19:16:10.111Z,62.88
2023-03-01T19:18:01.506Z,63.29
2023-03-01T19:19:51.730Z,63.40
2023-03-01T19:21:42.049Z,63.61
2023-03-01T19:23:36.198Z,63.34
2023-03-01T19:25:26.636Z,63.34
2023-03-01T19:27:17.146Z,63.54
2023-03-01T19:29:10.189Z,63.75
2023-03-01T19:31:02.588Z,63.92
2023-03-01T19:32:53.772Z,64.01
2023-03-01T19:34:46.097Z,64.13
2023-03-01T19:36:36.434Z,64.21
2023-03-01T19:38:28.401Z,64.13
2023-03-01T19:40:18.977Z,64.13
2023-03-01T19:42:11.088Z,64.34
2023-03-01T19:44:04.002Z,64.69
2023-03-01T19:45:55.142Z,65.07
2023-03-01T19:47:47.467Z,65.30
2023-03-01T19:49:37.644Z,65.48
2023-03-01T19:51:28.241Z,65.49
2023-03-01T19:53:18.676Z,65.45
2023-03-01T19:55:10.141Z,65.36
2023-03-01T19:57:00.711Z,65.37
2023-03-01T19:58:59.636Z,65.43
2023-03-01T20:00:56.663Z,65.35
2023-03-01T20:02:47.008Z,65.56
2023-03-01T20:04:37.474Z,65.76
2023-03-01T20:06:29.433Z,66.03
2023-03-01T20:08:19.577Z,66.24
2023-03-01T20:10:10.890Z,66.30
2023-03-01T20:12:00.890Z,66.34
2023-03-01T20:13:50.859Z,66.42
2023-03-01T20:15:43.185Z,66.38
2023-03-01T20:17:33.230Z,66.35
2023-03-01T20:19:23.626Z,66.44
2023-03-01T20:21:24.771Z,66.55
2023-03-01T20:23:15.804Z,66.95
2023-03-01T20:25:07.198Z,66.90
2023-03-01T20:26:58.134Z,67.12
2023-03-01T20:28:50.498Z,67.25
2023-03-01T20:30:41.054Z,67.33
2023-03-01T20:32:32.744Z,67.15
2023-03-01T20:34:22.954Z,67.31
2023-03-01T20:36:13.095Z,67.14
2023-03-01T20:38:03.687Z,67.58
2023-03-01T20:39:54.748Z,67.87
2023-03-01T20:41:55.350Z,68.04
2023-03-01T20:43:53.586Z,68.45
2023-03-01T20:45:44.128Z,68.44
2023-03-01T20:47:34.623Z,68.64
2023-03-01T20:49:25.128Z,68.71
2023-03-01T20:51:15.875Z,68.79
2023-03-01T20:53:06.267Z,68.97
2023-03-01T20:54:56.348Z,68.90
2023-03-01T20:56:47.012Z,68.99
2023-03-01T20:58:38.082Z,69.08
2023-03-01T21:00:28.798Z,69.26
2023-03-01T21:02:19.043Z,69.23
2023-03-01T21:04:09.383Z,69.18
2023-03-01T21:06:01.772Z,69.18
2023-03-01T21:07:51.829Z,69.45
2023-03-01T21:09:44.134Z,69.60
2023-03-01T21:11:34.491Z,69.40
2023-03-01T21:13:26.313Z,69.37
2023-03-01T21:15:28.385Z,69.57
2023-03-01T21:17:19.338Z,69.72
2023-03-01T21:19:10.444Z,69.79
2023-03-01T21:21:05.157Z,69.51
2023-03-01T21:22:55.394Z,69.40
2023-03-01T21:24:45.562Z,69.31
2023-03-01T21:26:36.081Z,69.49
2023-03-01T21:28:26.887Z,69.40
2023-03-01T21:30:17.284Z,69.54
2023-03-01T21:32:08.345Z,69.63
2023-03-01T21:33:59.649Z,69.76
2023-03-01T21:35:49.944Z,69.86
2023-03-01T21:37:40.329Z,70.03
2023-03-01T21:39:30.783Z,70.01
2023-03-01T21:41:26.098Z,69.88
2023-03-01T21:43:16.558Z,69.91
2023-03-01T21:45:07.220Z,70.19
2023-03-01T21:46:58.375Z,70.12
2023-03-01T21:48:49.476Z,70.07
2023-03-01T21:50:39.562Z,69.99
2023-03-01T21:52:29.501Z,69.97
2023-03-01T21:54:19.768Z,70.23
2023-03-01T21:56:15.079Z,70.41
2023-03-01T21:58:05.373Z,70.57
2023-03-01T21:59:55.465Z,70.84
2023-03-01T22:01:46.204Z,70.87
2023-03-01T22:03:44.533Z,70.89
2023-03-01T22:05:34.740Z,70.96
2023-03-01T22:07:24.884Z,71.00
2023-03-01T22:09:16.103Z,70.97
2023-03-01T22:11:06.201Z,70.83
2023-03-01T22:12:57.137Z,70.22
2023-03-01T22:14:47.379Z,70.17
2023-03-01T22:16:39.359Z,70.29
2023-03-01T22:18:29.494Z,70.17
2023-03-01T22:20:19.767Z,70.33
2023-03-01T22:22:09.871Z,70.30
2023-03-01T22:24:00.001Z,70.38
2023-03-01T22:25:50.160Z,70.35
2023-03-01T22:27:40.173Z,70.14
2023-03-01T22:29:30.359Z,69.90
2023-03-01T22:31:20.746Z,69.87
2023-03-01T22:33:10.798Z,70.43
2023-03-01T22:35:00.622Z,70.79
2023-03-01T22:36:50.728Z,70.93
2023-03-01T22:38:41.258Z,70.86
2023-03-01T22:40:31.273Z,70.83
2023-03-01T22:42:21.185Z,70.71
2023-03-01T22:44:13.054Z,70.59
2023-03-01T22:46:15.168Z,70.70
2023-03-01T22:48:05.389Z,71.16
2023-03-01T22:49:56.001Z,71.40
2023-03-01T22:51:46.876Z,71.63
2023-03-01T22:53:37.368Z,71.83
2023-03-01T22:55:28.850Z,71.89
2023-03-01T22:57:18.805Z,71.84
2023-03-01T22:59:11.434Z,71.72
2023-03-01T23:01:01.580Z,71.82
2023-03-01T23:02:52.117Z,71.83
2023-03-01T23:04:43.294Z,71.67
2023-03-01T23:06:34.100Z,71.67
2023-03-01T23:08:24.778Z,71.76
2023-03-01T23:10:15.383Z,72.06
2023-03-01T23:12:06.896Z,71.82
2023-03-01T23:15:08.455Z,71.79
2023-03-01T23:17:02.990Z,71.94
2023-03-01T23:18:56.140Z,72.20
2023-03-01T23:20:47.576Z,72.10
2023-03-01T23:22:39.433Z,72.44
2023-03-01T23:24:32.037Z,72.74
2023-03-01T23:26:27.168Z,72.63
2023-03-01T23:28:18.720Z,72.72
2023-03-01T23:30:10.762Z,72.63
2023-03-01T23:32:03.526Z,72.61
2023-03-01T23:33:55.205Z,72.33
2023-03-01T23:35:46.616Z,72.62
2023-03-01T23:37:38.435Z,72.58
2023-03-01T23:39:33.342Z,73.03
2023-03-01T23:41:27.784Z,72.99
2023-03-01T23:43:19.098Z,73.00
2023-03-01T23:45:11.137Z,72.76
2023-03-01T23:47:03.548Z,72.77
2023-03-01T23:48:56.146Z,72.69
2023-03-01T23:50:48.457Z,72.78
2023-03-01T23:52:41.822Z,72.88
2023-03-01T23:54:33.395Z,72.86
2023-03-01T23:56:27.415Z,72.85
2023-03-01T23:58:20.180Z,72.88
